11N weather

Candlelight Farms Airport
New Milford, Connecticut, United States

Public forecast

Using degrees Fahrenheit for public forecast. Weather courtesy of forecast.io.

METAR (pilot weather report)

Closest report is Danbury Municipal Airport, 11.7 nm (21.8 km) S. Retrieved 2019/09/23 15:53 UTC (32 minutes ago):

KDXR 231553Z 24009KT 10SM CLR 29/18 A2987 RMK AO2 SLP109 T02940183

TAF (pilot weather forecast)

Closest forecast is Dutchess County Airport, 19.1 nm (35.4 km) W. Retrieved 2019/09/23 12:24 UTC (4 hours ago):

TAF KPOU 231120Z 2312/2412 18003KT P6SM FEW080 BKN250 FM231400 22006KT P6SM BKN200 FM232100 24008KT P6SM VCSH SCT060 BKN120 FM240400 27003KT P6SM SCT120